createdAt,value
2017-09-01T00:02:17.328Z,100638.41
2017-09-01T00:05:19.412Z,100637.53
2017-09-01T00:08:20.873Z,100635.95
2017-09-01T00:11:22.203Z,100632.83
2017-09-01T00:14:23.538Z,100633.34
2017-09-01T00:17:24.841Z,100626.88
2017-09-01T00:20:26.173Z,100624.66
2017-09-01T00:23:27.490Z,100624.38
2017-09-01T00:26:28.806Z,100628.70
2017-09-01T00:29:30.112Z,100617.81
2017-09-01T00:32:32.281Z,100626.19
2017-09-01T00:35:33.665Z,100617.20
2017-09-01T00:38:35.000Z,100615.33
2017-09-01T00:41:36.449Z,100611.72
2017-09-01T00:44:37.778Z,100613.14
2017-09-01T00:47:39.143Z,100614.81
2017-09-01T00:50:40.464Z,100609.43
2017-09-01T00:53:41.849Z,100607.47
2017-09-01T00:56:43.208Z,100609.32
2017-09-01T00:59:44.589Z,100609.72
2017-09-01T01:02:45.933Z,100607.61
2017-09-01T01:05:47.294Z,100609.95
2017-09-01T01:08:48.648Z,100610.22
2017-09-01T01:11:50.045Z,100610.56
2017-09-01T01:14:51.414Z,100610.89
2017-09-01T01:17:52.785Z,100607.11
2017-09-01T01:20:54.165Z,100621.58
2017-09-01T01:23:55.506Z,100615.75
2017-09-01T01:26:56.901Z,100620.55
2017-09-01T01:29:58.243Z,100628.13
2017-09-01T01:32:59.623Z,100628.30
2017-09-01T01:36:00.983Z,100616.73
2017-09-01T01:39:02.363Z,100612.80
2017-09-01T01:42:04.137Z,100621.23
2017-09-01T01:45:05.473Z,100615.00
2017-09-01T01:48:06.861Z,100617.50
2017-09-01T01:51:08.229Z,100621.35
2017-09-01T01:54:09.600Z,100616.09
2017-09-01T01:57:10.933Z,100612.04
2017-09-01T02:00:12.324Z,100612.48
2017-09-01T02:03:13.738Z,100616.13
2017-09-01T02:06:15.080Z,100614.39
2017-09-01T02:09:16.465Z,100607.88
2017-09-01T02:12:17.845Z,100615.97
2017-09-01T02:15:19.312Z,100607.20
2017-09-01T02:18:20.664Z,100603.55
2017-09-01T02:21:22.038Z,100599.96
2017-09-01T02:24:23.429Z,100594.78
2017-09-01T02:27:24.789Z,100594.97
2017-09-01T02:30:26.138Z,100593.63
2017-09-01T02:33:27.501Z,100601.95
2017-09-01T02:36:28.850Z,100597.11
2017-09-01T02:39:30.229Z,100598.31
2017-09-01T02:42:31.764Z,100597.71
2017-09-01T02:45:33.188Z,100596.67
2017-09-01T02:48:34.584Z,100588.70
2017-09-01T02:51:35.965Z,100583.17
2017-09-01T02:54:37.373Z,100575.96
2017-09-01T02:57:38.722Z,100567.83
2017-09-01T03:00:40.208Z,100568.90
2017-09-01T03:03:41.549Z,100567.80
2017-09-01T03:06:42.929Z,100566.66
2017-09-01T03:09:44.265Z,100575.84
2017-09-01T03:12:45.649Z,100571.45
2017-09-01T03:15:47.061Z,100570.57
2017-09-01T03:18:48.500Z,100568.58
2017-09-01T03:21:50.284Z,100572.97
2017-09-01T03:24:51.661Z,100574.27
2017-09-01T03:27:53.049Z,100572.63
2017-09-01T03:30:54.387Z,100576.41
2017-09-01T03:33:55.757Z,100568.36
2017-09-01T03:36:57.109Z,100576.23
2017-09-01T03:39:58.461Z,100567.30
2017-09-01T03:42:59.820Z,100573.42
2017-09-01T03:46:01.165Z,100566.67
2017-09-01T03:49:02.657Z,100574.51
2017-09-01T03:52:03.994Z,100563.41
2017-09-01T03:55:05.365Z,100568.50
2017-09-01T03:58:06.717Z,100561.40
2017-09-01T04:01:08.112Z,100567.91
2017-09-01T04:04:09.445Z,100560.19
2017-09-01T04:07:10.777Z,100565.67
2017-09-01T04:10:12.420Z,100561.66
2017-09-01T04:13:13.804Z,100553.80
2017-09-01T04:16:15.184Z,100568.58
2017-09-01T04:19:16.585Z,100555.11
2017-09-01T04:22:17.990Z,100561.06
2017-09-01T04:25:19.412Z,100558.53
2017-09-01T04:28:20.771Z,100560.66
2017-09-01T04:31:22.134Z,100573.83
2017-09-01T04:34:23.553Z,100571.84
2017-09-01T04:37:24.877Z,100581.67
2017-09-01T04:40:26.272Z,100593.11
2017-09-01T04:43:27.621Z,100584.81
2017-09-01T04:46:28.997Z,100588.47
2017-09-01T04:49:30.560Z,100593.01
2017-09-01T04:52:31.878Z,100594.53
2017-09-01T04:55:33.254Z,100598.09
2017-09-01T04:58:34.592Z,100601.88
2017-09-01T05:01:35.921Z,100614.55
2017-09-01T05:04:37.241Z,100607.10
2017-09-01T05:07:38.636Z,100607.66
2017-09-01T05:10:40.010Z,100608.39
2017-09-01T05:13:41.370Z,100605.03
2017-09-01T05:16:42.768Z,100598.76
2017-09-01T05:19:44.129Z,100608.97
2017-09-01T05:22:45.471Z,100620.61
2017-09-01T05:25:46.801Z,100621.75
2017-09-01T05:28:48.153Z,100614.13
2017-09-01T05:31:49.492Z,100610.04
2017-09-01T05:34:50.868Z,100615.88
2017-09-01T05:37:52.218Z,100625.40
2017-09-01T05:40:53.557Z,100630.28
2017-09-01T05:43:55.252Z,100627.94
2017-09-01T05:46:56.546Z,100627.98
2017-09-01T05:49:57.928Z,100630.75
2017-09-01T05:52:59.244Z,100629.61
2017-09-01T05:56:00.565Z,100635.17
2017-09-01T05:59:01.865Z,100631.39
2017-09-01T06:02:03.217Z,100624.56
2017-09-01T06:05:04.556Z,100628.98
2017-09-01T06:08:05.923Z,100630.89
2017-09-01T06:11:07.296Z,100630.44
2017-09-01T06:14:08.621Z,100637.30
2017-09-01T06:17:09.968Z,100638.15
2017-09-01T06:20:11.241Z,100630.23
2017-09-01T06:23:12.584Z,100627.30
2017-09-01T06:26:13.871Z,100635.03
2017-09-01T06:29:15.213Z,100621.59
2017-09-01T06:32:17.538Z,100627.80
2017-09-01T06:35:18.860Z,100628.53
2017-09-01T06:38:20.441Z,100621.59
2017-09-01T06:41:21.737Z,100627.03
2017-09-01T06:44:23.073Z,100630.34
2017-09-01T06:47:24.365Z,100630.29
2017-09-01T06:50:25.673Z,100631.41
2017-09-01T06:53:26.984Z,100617.67
2017-09-01T06:56:28.301Z,100625.78
2017-09-01T06:59:29.738Z,100631.00
2017-09-01T07:02:31.769Z,100629.22
2017-09-01T07:05:33.077Z,100622.12
2017-09-01T07:08:34.361Z,100631.78
2017-09-01T07:11:35.765Z,100635.49
2017-09-01T07:14:37.069Z,100628.56
2017-09-01T07:17:38.429Z,100630.05
2017-09-01T07:20:39.722Z,100633.49
2017-09-01T07:23:41.088Z,100629.49
2017-09-01T07:26:42.409Z,100636.56
2017-09-01T07:29:43.724Z,100633.59
2017-09-01T07:32:45.084Z,100631.27
2017-09-01T07:35:46.408Z,100633.41
2017-09-01T07:38:47.757Z,100636.73
2017-09-01T07:41:49.085Z,100638.05
2017-09-01T07:44:50.440Z,100632.67
2017-09-01T07:47:51.777Z,100634.89
2017-09-01T07:50:53.085Z,100638.91
2017-09-01T07:53:54.416Z,100644.02
2017-09-01T07:56:55.857Z,100640.40
2017-09-01T07:59:57.165Z,100650.72
2017-09-01T08:02:58.501Z,100649.34
2017-09-01T08:05:59.792Z,100651.91
2017-09-01T08:09:01.143Z,100652.84
2017-09-01T08:12:02.482Z,100649.44
2017-09-01T08:15:03.813Z,100654.14
2017-09-01T08:18:05.157Z,100650.89
2017-09-01T08:21:06.461Z,100647.67
2017-09-01T08:24:07.808Z,100652.29
2017-09-01T08:27:09.101Z,100644.59
2017-09-01T08:30:10.454Z,100637.78
2017-09-01T08:33:11.733Z,100638.02
2017-09-01T08:36:13.061Z,100636.73
2017-09-01T08:39:14.388Z,100621.48
2017-09-01T08:42:15.718Z,100626.02
2017-09-01T08:45:17.212Z,100619.10
2017-09-01T08:48:18.505Z,100619.68
2017-09-01T08:51:19.862Z,100617.64
2017-09-01T08:54:21.153Z,100617.64
2017-09-01T08:57:22.505Z,100618.41
2017-09-01T09:00:23.807Z,100618.07
2017-09-01T09:03:25.874Z,100620.23
2017-09-01T09:06:27.204Z,100615.57
2017-09-01T09:09:28.536Z,100623.70
2017-09-01T09:12:29.918Z,100628.30
2017-09-01T09:15:31.237Z,100608.71
2017-09-01T09:18:32.553Z,100618.50
2017-09-01T09:21:33.881Z,100622.45
2017-09-01T09:24:35.229Z,100623.11
2017-09-01T09:27:36.529Z,100621.35
2017-09-01T09:30:37.861Z,100618.12
2017-09-01T09:33:39.161Z,100627.34
2017-09-01T09:36:40.496Z,100623.69
2017-09-01T09:39:41.843Z,100630.09
2017-09-01T09:42:43.152Z,100630.03
2017-09-01T09:45:44.488Z,100621.27
2017-09-01T09:48:45.808Z,100627.95
2017-09-01T09:51:47.149Z,100618.03
2017-09-01T09:54:48.680Z,100618.93
2017-09-01T09:57:49.984Z,100610.92
2017-09-01T10:00:51.322Z,100606.14
2017-09-01T10:03:52.626Z,100612.53
2017-09-01T10:06:54.019Z,100603.95
2017-09-01T10:09:55.337Z,100601.67
2017-09-01T10:12:56.718Z,100592.80
2017-09-01T10:15:58.077Z,100599.17
2017-09-01T10:18:59.388Z,100594.66
2017-09-01T10:22:00.760Z,100589.95
2017-09-01T10:25:02.073Z,100604.91
2017-09-01T10:28:03.460Z,100598.27
2017-09-01T10:31:04.801Z,100597.18
2017-09-01T10:34:06.144Z,100582.58
2017-09-01T10:37:07.464Z,100597.50
2017-09-01T10:40:08.812Z,100587.46
2017-09-01T10:43:10.144Z,100590.15
2017-09-01T10:46:11.437Z,100595.70
2017-09-01T10:53:09.485Z,100591.62
2017-09-01T10:56:29.249Z,100586.63
2017-09-01T10:59:30.561Z,100581.31
2017-09-01T11:02:31.873Z,100587.83
2017-09-01T11:05:33.210Z,100582.69
2017-09-01T11:08:34.524Z,100583.37
2017-09-01T11:11:35.881Z,100579.95
2017-09-01T11:14:37.597Z,100577.73
2017-09-01T11:17:38.928Z,100585.98
2017-09-01T11:20:46.498Z,100575.89
2017-09-01T11:23:53.884Z,100579.61
2017-09-01T11:26:55.232Z,100573.48
2017-09-01T11:29:56.918Z,100591.36
2017-09-01T11:32:58.228Z,100582.16
2017-09-01T11:35:59.692Z,100586.14
2017-09-01T11:39:01.001Z,100585.61
2017-09-01T11:42:02.317Z,100580.79
2017-09-01T11:45:03.660Z,100588.68
2017-09-01T11:48:05.002Z,100583.19
2017-09-01T11:51:06.306Z,100580.43
2017-09-01T11:54:07.644Z,100577.48
2017-09-01T11:57:08.981Z,100572.14
2017-09-01T12:00:10.325Z,100567.49
2017-09-01T12:03:11.662Z,100564.88
2017-09-01T12:06:12.946Z,100568.51
2017-09-01T12:09:14.288Z,100570.69
2017-09-01T12:12:16.049Z,100569.00
2017-09-01T12:15:17.354Z,100554.00
2017-09-01T12:18:18.793Z,100562.73
2017-09-01T12:21:20.128Z,100577.46
2017-09-01T12:24:21.481Z,100577.30
2017-09-01T12:27:22.796Z,100594.61
2017-09-01T12:30:24.152Z,100595.25
2017-09-01T12:33:25.433Z,100597.59
2017-09-01T12:36:26.809Z,100606.55
2017-09-01T12:39:28.154Z,100605.18
2017-09-01T12:42:29.480Z,100610.92
2017-09-01T12:45:30.897Z,100610.42
2017-09-01T12:48:32.194Z,100606.11
2017-09-01T12:51:33.533Z,100599.19
2017-09-01T12:54:34.837Z,100611.83
2017-09-01T12:57:36.201Z,100612.14
2017-09-01T13:00:37.730Z,100603.75
2017-09-01T13:03:39.037Z,100608.00
2017-09-01T13:06:40.345Z,100606.50
2017-09-01T13:09:41.668Z,100605.38
2017-09-01T13:12:43.064Z,100609.63
2017-09-01T13:15:44.368Z,100607.16
2017-09-01T13:18:45.685Z,100614.54
2017-09-01T13:21:47.004Z,100608.99
2017-09-01T13:24:48.393Z,100607.32
2017-09-01T13:27:50.017Z,100601.19
2017-09-01T13:30:51.318Z,100597.34
2017-09-01T13:33:52.698Z,100585.02
2017-09-01T13:36:54.017Z,100583.21
2017-09-01T13:39:55.437Z,100578.39
2017-09-01T13:42:56.729Z,100584.88
2017-09-01T13:45:58.050Z,100592.76
2017-09-01T13:48:59.377Z,100578.52
2017-09-01T13:52:00.706Z,100572.08
2017-09-01T13:55:02.020Z,100567.19
2017-09-01T13:58:03.352Z,100557.04
2017-09-01T14:01:04.673Z,100551.94
2017-09-01T14:04:05.994Z,100556.05
2017-09-01T14:07:07.449Z,100560.00
2017-09-01T14:10:08.738Z,100565.20
2017-09-01T14:13:10.083Z,100565.15
2017-09-01T14:16:11.409Z,100561.23
2017-09-01T14:19:12.749Z,100563.95
2017-09-01T14:22:14.029Z,100560.19
2017-09-01T14:25:15.358Z,100559.59
2017-09-01T14:28:16.801Z,100547.36
2017-09-01T14:31:18.110Z,100555.18
2017-09-01T14:34:19.417Z,100548.48
2017-09-01T14:37:20.732Z,100539.48
2017-09-01T14:40:22.078Z,100540.11
2017-09-01T14:43:23.361Z,100525.84
2017-09-01T14:46:24.681Z,100518.77
2017-09-01T14:49:25.957Z,100519.51
2017-09-01T14:52:27.277Z,100499.56
2017-09-01T14:55:29.772Z,100508.13
2017-09-01T14:58:31.144Z,100496.77
2017-09-01T15:01:32.512Z,100497.26
2017-09-01T15:04:33.836Z,100487.29
2017-09-01T15:07:35.188Z,100481.70
2017-09-01T15:10:36.503Z,100479.12
2017-09-01T15:13:37.858Z,100477.67
2017-09-01T15:16:39.201Z,100472.94
2017-09-01T15:19:40.549Z,100467.33
2017-09-01T15:22:41.996Z,100469.06
2017-09-01T15:25:43.320Z,100467.50
2017-09-01T15:28:44.828Z,100464.77
2017-09-01T15:31:46.121Z,100462.98
2017-09-01T15:34:47.433Z,100457.93
2017-09-01T15:37:48.764Z,100462.52
2017-09-01T15:40:50.089Z,100470.73
2017-09-01T15:43:51.409Z,100479.19
2017-09-01T15:46:52.761Z,100480.50
2017-09-01T15:49:54.484Z,100475.90
2017-09-01T15:52:55.817Z,100476.77
2017-09-01T15:55:57.147Z,100474.20
2017-09-01T15:58:58.425Z,100464.45
2017-09-01T16:01:59.800Z,100480.71
2017-09-01T16:05:01.116Z,100477.94
2017-09-01T16:08:02.481Z,100473.39
2017-09-01T16:11:03.801Z,100482.69
2017-09-01T16:14:05.145Z,100471.13
2017-09-01T16:17:06.921Z,100462.75
2017-09-01T16:20:08.229Z,100461.19
2017-09-01T16:23:09.672Z,100461.98
2017-09-01T16:26:10.977Z,100465.96
2017-09-01T16:29:12.306Z,100463.03
2017-09-01T16:32:13.587Z,100477.97
2017-09-01T16:35:14.921Z,100478.84
2017-09-01T16:38:16.220Z,100482.68
2017-09-01T16:41:17.573Z,100477.30
2017-09-01T16:44:18.857Z,100469.96
2017-09-01T16:47:20.181Z,100484.58
2017-09-01T16:50:21.511Z,100486.95
2017-09-01T16:53:22.825Z,100490.96
2017-09-01T16:56:24.169Z,100499.31
2017-09-01T16:59:25.489Z,100492.17
2017-09-01T17:02:26.821Z,100493.81
2017-09-01T17:05:28.132Z,100490.42
2017-09-01T17:08:29.496Z,100492.06
2017-09-01T17:11:30.858Z,100496.86
2017-09-01T17:14:32.322Z,100502.66
2017-09-01T17:17:33.654Z,100501.69
2017-09-01T17:20:35.041Z,100499.58
2017-09-01T17:23:36.610Z,100512.02
2017-09-01T17:26:37.972Z,100504.55
2017-09-01T17:29:39.370Z,100520.29
2017-09-01T17:32:40.748Z,100525.19
2017-09-01T17:35:42.112Z,100523.34
2017-09-01T17:38:43.475Z,100526.37
2017-09-01T17:41:44.852Z,100522.19
2017-09-01T17:44:46.151Z,100522.69
2017-09-01T17:47:47.523Z,100522.78
2017-09-01T17:50:48.961Z,100531.28
2017-09-01T17:53:50.266Z,100539.16
2017-09-01T17:56:51.638Z,100531.96
2017-09-01T17:59:52.957Z,100535.05
2017-09-01T18:02:54.326Z,100525.92
2017-09-01T18:05:55.677Z,100526.82
2017-09-01T18:08:57.041Z,100533.13
2017-09-01T18:11:58.414Z,100537.52
2017-09-01T18:14:59.784Z,100537.45
2017-09-01T18:18:01.213Z,100540.59
2017-09-01T18:21:02.572Z,100537.36
2017-09-01T18:24:03.946Z,100538.00
2017-09-01T18:27:05.278Z,100526.11
2017-09-01T18:30:06.689Z,100528.53
2017-09-01T18:33:08.053Z,100526.33
2017-09-01T18:36:09.429Z,100533.78
2017-09-01T18:39:10.772Z,100534.94
2017-09-01T18:42:12.129Z,100531.20
2017-09-01T18:45:13.500Z,100526.95
2017-09-01T18:48:14.853Z,100525.84
2017-09-01T18:51:16.327Z,100533.41
2017-09-01T18:54:17.661Z,100532.70
2017-09-01T18:57:19.049Z,100539.50
2017-09-01T19:00:20.442Z,100546.79
2017-09-01T19:03:21.791Z,100547.39
2017-09-01T19:06:23.141Z,100538.11
2017-09-01T19:09:24.616Z,100545.04
2017-09-01T19:12:26.301Z,100546.44
2017-09-01T19:15:27.676Z,100559.02
2017-09-01T19:18:29.036Z,100557.42
2017-09-01T19:21:30.361Z,100559.48
2017-09-01T19:24:31.747Z,100556.28
2017-09-01T19:27:33.192Z,100555.68
2017-09-01T19:30:34.574Z,100549.59
2017-09-01T19:36:40.093Z,100552.45
2017-09-01T19:39:41.453Z,100555.35
2017-09-01T19:42:42.818Z,100561.55
2017-09-01T19:45:44.156Z,100555.81
2017-09-01T19:48:45.538Z,100556.92
2017-09-01T19:51:46.866Z,100558.21
2017-09-01T19:54:48.289Z,100556.48
2017-09-01T19:57:49.857Z,100547.31
2017-09-01T20:00:51.222Z,100556.72
2017-09-01T20:03:53.012Z,100544.30
2017-09-01T20:06:54.353Z,100546.95
2017-09-01T20:09:55.761Z,100539.81
2017-09-01T20:12:57.140Z,100544.36
2017-09-01T20:15:58.486Z,100539.92
2017-09-01T20:19:00.059Z,100538.25
2017-09-01T20:22:01.414Z,100540.69
2017-09-01T20:25:02.776Z,100541.03
2017-09-01T20:28:04.164Z,100542.30
2017-09-01T20:31:05.518Z,100543.00
2017-09-01T20:34:06.893Z,100541.43
2017-09-01T20:37:08.238Z,100538.04
2017-09-01T20:40:09.636Z,100536.94
2017-09-01T20:43:11.161Z,100536.56
2017-09-01T20:46:12.497Z,100534.06
2017-09-01T20:49:13.958Z,100537.91
2017-09-01T20:52:15.327Z,100538.50
2017-09-01T20:55:16.709Z,100534.09
2017-09-01T20:58:18.066Z,100540.77
2017-09-01T21:01:19.473Z,100544.09
2017-09-01T21:04:20.837Z,100544.10
2017-09-01T21:07:22.197Z,100551.19
2017-09-01T21:10:23.597Z,100542.92
2017-09-01T21:13:25.008Z,100552.71
2017-09-01T21:16:26.382Z,100556.20
2017-09-01T21:19:27.742Z,100547.85
2017-09-01T21:22:29.099Z,100548.75
2017-09-01T21:25:30.408Z,100552.70
2017-09-01T21:28:31.879Z,100559.58
2017-09-01T21:31:33.197Z,100546.75
2017-09-01T21:34:34.536Z,100553.73
2017-09-01T21:37:35.856Z,100556.41
2017-09-01T21:40:37.210Z,100562.47
2017-09-01T21:43:38.510Z,100562.85
2017-09-01T21:46:39.845Z,100564.09
2017-09-01T21:49:41.369Z,100566.95
2017-09-01T21:52:42.681Z,100588.59
2017-09-01T21:55:44.133Z,100575.19
2017-09-01T21:58:45.481Z,100583.69
2017-09-01T22:01:46.848Z,100580.61
2017-09-01T22:04:48.137Z,100572.13
2017-09-01T22:07:49.455Z,100577.34
2017-09-01T22:10:50.766Z,100569.91
2017-09-01T22:13:52.177Z,100576.57
2017-09-01T22:16:53.502Z,100569.81
2017-09-01T22:19:54.817Z,100565.64
2017-09-01T22:22:56.124Z,100567.06
2017-09-01T22:25:57.469Z,100569.89
2017-09-01T22:28:59.048Z,100567.13
2017-09-01T22:32:00.376Z,100560.20
2017-09-01T22:35:01.708Z,100558.07
2017-09-01T22:38:03.014Z,100554.17
2017-09-01T22:41:04.322Z,100553.38
2017-09-01T22:44:05.625Z,100558.97
2017-09-01T22:47:06.977Z,100558.01
2017-09-01T22:50:08.300Z,100557.83
2017-09-01T22:53:09.629Z,100555.95
2017-09-01T22:56:11.073Z,100558.59
2017-09-01T22:59:12.385Z,100557.55
2017-09-01T23:02:13.732Z,100552.56
2017-09-01T23:05:15.110Z,100555.34
2017-09-01T23:08:16.464Z,100563.56
2017-09-01T23:11:17.800Z,100569.83
2017-09-01T23:14:19.157Z,100559.28
2017-09-01T23:17:20.469Z,100561.44
2017-09-01T23:20:21.848Z,100551.66
2017-09-01T23:23:23.134Z,100555.09
2017-09-01T23:26:24.465Z,100550.03
2017-09-01T23:29:25.754Z,100548.80
2017-09-01T23:32:27.073Z,100547.52
2017-09-01T23:35:28.373Z,100549.27
2017-09-01T23:38:29.707Z,100551.44
2017-09-01T23:41:31.426Z,100558.97
2017-09-01T23:44:32.736Z,100557.09
2017-09-01T23:47:34.074Z,100556.97
2017-09-01T23:50:35.380Z,100560.98
2017-09-01T23:53:36.689Z,100552.89
2017-09-01T23:56:37.985Z,100551.17
2017-09-01T23:59:39.313Z,100561.37
